Terminal Aerodrome Forecast
Issued by NWS

Home | Current Version | Previous Version | Text Only | Print | Product List | Glossary On
Versions: 1 2 3 4 5 6 7 8 9 10 11 12 13 14 15 16 17 18
000
FTUS43 KILX 250500
TAFCMI
TAF
KCMI 250520Z 2506/2606 14011KT P6SM -RA OVC090
     FM251000 30014KT P6SM -RADZ OVC010
     FM251400 31014G24KT P6SM SCT010
     FM252100 28015KT P6SM SCT250
     FM260200 23008KT P6SM SCT250=

USA.gov is the U.S. government's official web portal to all federal, state and local government web resources and services.